Terminal Aerodrome Forecast
Issued by NWS Portland, OR

Home | Current Version | Previous Version | Text Only | Print | Product List | Glossary On
Versions: 1 2 3 4 5 6 7 8 9 10 11 12 13 14 15 16 17 18 19 20 21 22 23 24 25 26 27 28 29 30 31
041
FTUS46 KPQR 022325
TAFEUG
TAF
KEUG 022325Z 0300/0324 29006KT P6SM VCSH BKN070 BKN120
     FM030100 29005KT P6SM -SHRA VCTS BKN060CB OVC120
     FM030400 21006KT P6SM -SHRA VCTS BKN060CB OVC120
     FM030900 21004KT P6SM BKN050 BKN120
     FM031400 VRB03KT P6SM SCT025 BKN050
     FM031900 34008KT P6SM SCT040 SCT070=

USA.gov is the U.S. government's official web portal to all federal, state and local government web resources and services.